Time;durP1;ratioP1;P1;durP2;ratioP2;P2;SDS_P1;SDS_P2;PMS_P1;PMS_P2;Temp;Humidity;BMP_temperature;BMP_pressure;BME280_temperature;BME280_humidity;BME280_pressure;Samples;Min_cycle;Max_cycle;Signal;HPM_P1;HPM_P2
2023/03/05 00:01:27;;;;;;;6.00;5.70;;;4.90;99.90;;;;;;5031971;28;20273;-64
2023/03/05 00:03:54;;;;;;;5.87;5.57;;;5.00;99.90;;;;;;5032919;28;20544;-62
2023/03/05 00:06:21;;;;;;;5.83;5.43;;;5.00;99.90;;;;;;5031573;28;20192;-64
2023/03/05 00:08:48;;;;;;;6.10;5.50;;;5.00;99.90;;;;;;5032740;28;20637;-64
2023/03/05 00:11:14;;;;;;;5.20;5.00;;;5.00;99.90;;;;;;5032264;28;20175;-63
2023/03/05 00:13:40;;;;;;;6.67;5.37;;;4.90;99.90;;;;;;5032011;28;20229;-63
2023/03/05 00:16:09;;;;;;;6.20;5.83;;;4.90;99.90;;;;;;5032286;28;20295;-64
2023/03/05 00:18:35;;;;;;;6.27;5.97;;;4.90;99.90;;;;;;5032499;28;20171;-64
2023/03/05 00:21:00;;;;;;;6.10;5.70;;;4.90;99.90;;;;;;5031713;28;20183;-63
2023/03/05 00:23:26;;;;;;;8.40;6.23;;;4.90;99.90;;;;;;5032350;28;20213;-64
2023/03/05 00:25:52;;;;;;;9.47;6.30;;;4.90;99.90;;;;;;5031842;28;20203;-64
2023/03/05 00:28:18;;;;;;;6.30;6.00;;;4.80;99.90;;;;;;5031990;28;20244;-64
2023/03/05 00:30:43;;;;;;;6.67;6.27;;;4.80;99.90;;;;;;5031854;28;20266;-64
2023/03/05 00:33:11;;;;;;;5.93;5.53;;;4.80;99.90;;;;;;5032568;28;20171;-63
2023/03/05 00:35:44;;;;;;;5.80;5.40;;;4.80;99.90;;;;;;5031885;28;20195;-64
2023/03/05 00:38:11;;;;;;;5.30;5.00;;;4.80;99.90;;;;;;5032193;28;20605;-64
2023/03/05 00:40:38;;;;;;;5.63;5.33;;;4.80;99.90;;;;;;5031647;28;20310;-64
2023/03/05 00:43:05;;;;;;;5.50;5.10;;;4.80;99.90;;;;;;5031916;28;20195;-64
2023/03/05 00:45:31;;;;;;;5.87;5.23;;;4.80;99.90;;;;;;5031663;28;20203;-63
2023/03/05 00:47:57;;;;;;;6.30;5.90;;;4.80;99.90;;;;;;5032092;28;20522;-64
2023/03/05 00:50:24;;;;;;;10.93;5.67;;;4.80;99.90;;;;;;5031624;28;20183;-64
2023/03/05 00:52:49;;;;;;;9.13;6.43;;;4.90;99.90;;;;;;5032022;28;20660;-64
2023/03/05 00:55:15;;;;;;;6.80;6.30;;;4.80;99.90;;;;;;5031329;28;20210;-64
2023/03/05 00:57:40;;;;;;;7.13;6.47;;;4.80;99.90;;;;;;5031871;28;20510;-65
2023/03/05 01:00:07;;;;;;;6.30;5.90;;;4.80;99.90;;;;;;5031243;28;20210;-63
2023/03/05 01:02:32;;;;;;;6.07;5.67;;;4.80;99.90;;;;;;5031734;28;20190;-63
2023/03/05 01:04:58;;;;;;;5.83;5.50;;;4.80;99.90;;;;;;5031392;28;20199;-64
2023/03/05 01:07:24;;;;;;;5.50;5.20;;;4.80;99.90;;;;;;5031503;28;20214;-64
2023/03/05 01:09:49;;;;;;;6.13;5.60;;;4.80;99.90;;;;;;5031341;28;20203;-64
2023/03/05 01:12:15;;;;;;;6.00;5.67;;;4.80;99.90;;;;;;5031605;28;20183;-62
2023/03/05 01:14:40;;;;;;;5.20;5.00;;;4.80;99.90;;;;;;5029307;28;20199;-64
2023/03/05 01:17:07;;;;;;;5.43;5.07;;;4.80;99.90;;;;;;5030172;28;20187;-64
2023/03/05 01:19:32;;;;;;;6.00;5.50;;;4.70;99.90;;;;;;5030907;28;20225;-63
2023/03/05 01:21:58;;;;;;;5.43;5.17;;;4.70;99.90;;;;;;5031553;28;20242;-64
2023/03/05 01:24:24;;;;;;;6.17;5.70;;;4.70;99.90;;;;;;5031164;28;20198;-64
2023/03/05 01:26:50;;;;;;;5.37;5.17;;;4.80;99.90;;;;;;5031251;28;20172;-64
2023/03/05 01:29:16;;;;;;;5.73;5.43;;;4.80;99.90;;;;;;5031283;28;20179;-64
2023/03/05 01:31:42;;;;;;;5.63;5.27;;;4.80;99.90;;;;;;5031431;28;20175;-64
2023/03/05 01:34:08;;;;;;;5.33;5.03;;;4.80;99.90;;;;;;5030147;28;20194;-64
2023/03/05 01:36:33;;;;;;;5.60;5.20;;;4.80;99.90;;;;;;5031251;28;20260;-64
2023/03/05 01:39:00;;;;;;;13.00;6.17;;;4.70;99.90;;;;;;5030225;28;20191;-64
2023/03/05 01:41:25;;;;;;;8.70;6.10;;;4.70;99.90;;;;;;5030404;28;20202;-62
2023/03/05 01:43:52;;;;;;;6.03;5.50;;;4.70;99.90;;;;;;5031420;28;20176;-64
2023/03/05 01:46:23;;;;;;;7.23;5.23;;;4.70;99.90;;;;;;5030892;28;20249;-64
2023/03/05 01:48:58;;;;;;;5.57;5.33;;;4.80;99.90;;;;;;5031353;28;20523;-64
2023/03/05 01:51:28;;;;;;;5.60;5.40;;;4.70;99.90;;;;;;5030821;28;20194;-64
2023/03/05 01:53:56;;;;;;;5.93;5.37;;;4.70;99.90;;;;;;5031363;28;20179;-64
2023/03/05 01:56:23;;;;;;;5.40;5.20;;;4.70;99.90;;;;;;5031135;28;20754;-64
2023/03/05 01:58:50;;;;;;;5.97;5.47;;;4.70;99.90;;;;;;5031254;28;20183;-64
2023/03/05 02:01:17;;;;;;;5.70;5.40;;;4.60;99.90;;;;;;5030669;28;20181;-64
2023/03/05 02:03:42;;;;;;;6.07;5.47;;;4.60;99.90;;;;;;5031288;28;20716;-63
2023/03/05 02:06:08;;;;;;;5.53;5.27;;;4.60;99.90;;;;;;5031287;28;20234;-63
2023/03/05 02:08:34;;;;;;;6.27;5.50;;;4.60;99.90;;;;;;5031192;28;20207;-64
2023/03/05 02:11:00;;;;;;;6.10;5.80;;;4.60;99.90;;;;;;5030583;28;20208;-64
2023/03/05 02:13:31;;;;;;;5.47;5.17;;;4.60;99.90;;;;;;5030829;28;20179;-64
2023/03/05 02:15:59;;;;;;;5.57;5.37;;;4.60;99.90;;;;;;5030054;28;20618;-65
2023/03/05 02:18:25;;;;;;;5.33;5.13;;;4.60;99.90;;;;;;5030928;28;20301;-64
2023/03/05 02:20:55;;;;;;;5.60;5.00;;;4.60;99.90;;;;;;5030444;28;20191;-63
2023/03/05 02:23:23;;;;;;;5.17;4.87;;;4.60;99.90;;;;;;5030516;28;20302;-64
2023/03/05 02:25:49;;;;;;;5.23;5.03;;;4.60;99.90;;;;;;5030937;28;20196;-63
2023/03/05 02:28:18;;;;;;;5.70;5.47;;;4.60;99.90;;;;;;5030693;28;20233;-64
2023/03/05 02:30:44;;;;;;;7.53;6.97;;;4.70;99.90;;;;;;5034055;28;20163;-64
2023/03/05 02:33:11;;;;;;;6.27;5.93;;;4.60;99.90;;;;;;5032839;28;20543;-63
2023/03/05 02:35:37;;;;;;;8.03;5.33;;;4.60;99.90;;;;;;5033156;28;20198;-64
2023/03/05 02:38:02;;;;;;;6.80;6.50;;;4.70;99.90;;;;;;5034395;28;20219;-64
2023/03/05 02:40:28;;;;;;;6.50;6.20;;;4.70;99.90;;;;;;5034051;28;20187;-64
2023/03/05 02:42:54;;;;;;;6.37;5.90;;;4.60;99.90;;;;;;5033749;28;20218;-63
2023/03/05 02:45:20;;;;;;;6.90;6.10;;;4.60;99.90;;;;;;5034126;28;20268;-63
2023/03/05 02:47:45;;;;;;;6.40;6.10;;;4.60;99.90;;;;;;5034071;28;20267;-63
2023/03/05 02:50:11;;;;;;;7.03;6.43;;;4.50;99.90;;;;;;5033844;28;20373;-63
2023/03/05 02:52:37;;;;;;;7.33;6.77;;;4.50;99.90;;;;;;5033933;28;20633;-64
2023/03/05 02:55:04;;;;;;;6.43;6.13;;;4.50;99.90;;;;;;5033963;28;20191;-64
2023/03/05 02:57:29;;;;;;;7.17;5.60;;;4.50;99.90;;;;;;5033634;28;20180;-63
2023/03/05 02:59:55;;;;;;;6.47;5.90;;;4.50;99.90;;;;;;5033369;28;20240;-64
2023/03/05 03:02:21;;;;;;;7.47;5.60;;;4.50;99.90;;;;;;5033928;28;20206;-64
2023/03/05 03:04:46;;;;;;;5.67;5.47;;;4.40;99.90;;;;;;5033623;28;20259;-64
2023/03/05 03:07:13;;;;;;;6.63;6.10;;;4.40;99.90;;;;;;5033763;28;20237;-61
2023/03/05 03:09:41;;;;;;;5.97;5.57;;;4.40;99.90;;;;;;5033244;28;20179;-63
2023/03/05 03:12:09;;;;;;;7.23;5.70;;;4.40;99.90;;;;;;5033845;28;20183;-63
2023/03/05 03:14:38;;;;;;;6.10;5.80;;;4.40;99.90;;;;;;5031048;28;20289;-63
2023/03/05 03:17:15;;;;;;;6.33;5.97;;;4.40;99.90;;;;;;5032642;28;20172;-63
2023/03/05 03:19:42;;;;;;;6.70;6.30;;;4.40;99.90;;;;;;5033158;28;20203;-63
2023/03/05 03:22:10;;;;;;;7.30;6.60;;;4.40;99.90;;;;;;5033462;28;20207;-63
2023/03/05 03:24:37;;;;;;;7.93;7.43;;;4.40;99.90;;;;;;5033404;28;20254;-63
2023/03/05 03:27:03;;;;;;;9.67;6.33;;;4.40;99.90;;;;;;5033705;28;20179;-63
2023/03/05 03:29:30;;;;;;;8.23;6.10;;;4.40;99.90;;;;;;5032932;28;20179;-63
2023/03/05 03:31:55;;;;;;;6.00;5.70;;;4.40;99.90;;;;;;5033428;28;20599;-63
2023/03/05 03:34:21;;;;;;;6.23;5.80;;;4.40;99.90;;;;;;5032945;28;20215;-63
2023/03/05 03:36:49;;;;;;;6.80;6.40;;;4.30;99.90;;;;;;5033434;28;20187;-63
2023/03/05 03:39:15;;;;;;;7.30;6.83;;;4.40;99.90;;;;;;5032901;28;20237;-63
2023/03/05 03:41:43;;;;;;;6.93;6.33;;;4.40;99.90;;;;;;5033170;28;20295;-63
2023/03/05 03:44:09;;;;;;;10.80;6.53;;;4.30;99.90;;;;;;5032850;28;20175;-64
2023/03/05 03:46:36;;;;;;;7.63;7.23;;;4.30;99.90;;;;;;5033404;28;20230;-62
2023/03/05 03:49:02;;;;;;;6.33;6.03;;;4.30;99.90;;;;;;5031879;28;20210;-62
2023/03/05 03:51:28;;;;;;;13.97;6.00;;;4.30;99.90;;;;;;5032905;28;20232;-63
2023/03/05 03:53:54;;;;;;;5.90;5.60;;;4.30;99.90;;;;;;5032916;28;20595;-63
2023/03/05 03:56:20;;;;;;;6.53;6.23;;;4.30;99.90;;;;;;5032879;28;20217;-63
2023/03/05 03:58:48;;;;;;;6.63;6.33;;;4.30;99.90;;;;;;5032700;28;20262;-63
2023/03/05 04:01:13;;;;;;;6.67;6.30;;;4.30;99.90;;;;;;5031068;28;20229;-63
2023/03/05 04:03:39;;;;;;;7.03;6.53;;;4.30;99.90;;;;;;5032213;28;20187;-63
2023/03/05 04:06:05;;;;;;;6.83;6.23;;;4.30;99.90;;;;;;5032678;28;20199;-63
2023/03/05 04:08:31;;;;;;;7.60;7.00;;;4.30;99.90;;;;;;5032351;28;20534;-63
2023/03/05 04:10:59;;;;;;;6.83;6.20;;;4.30;99.90;;;;;;5032423;28;20179;-63
2023/03/05 04:13:24;;;;;;;6.23;5.93;;;4.30;99.90;;;;;;5032116;28;20191;-63
2023/03/05 04:15:50;;;;;;;6.43;5.87;;;4.30;99.90;;;;;;5031521;28;20195;-62
2023/03/05 04:18:15;;;;;;;9.67;6.20;;;4.30;99.90;;;;;;5032241;28;20210;-65
2023/03/05 04:20:41;;;;;;;6.67;6.17;;;4.30;99.90;;;;;;5032174;28;20400;-62
2023/03/05 04:23:06;;;;;;;5.77;5.47;;;4.30;99.90;;;;;;5032115;28;20253;-63
2023/03/05 04:25:32;;;;;;;9.93;6.03;;;4.20;99.90;;;;;;5032202;28;20199;-63
2023/03/05 04:27:58;;;;;;;6.10;5.80;;;4.20;99.90;;;;;;5030837;28;20230;-62
2023/03/05 04:30:23;;;;;;;7.03;6.07;;;4.20;99.90;;;;;;5031994;28;20183;-62
2023/03/05 04:32:49;;;;;;;6.03;5.73;;;4.30;99.90;;;;;;5032276;28;20193;-63
2023/03/05 04:35:14;;;;;;;10.23;6.20;;;4.30;99.90;;;;;;5031987;28;20199;-64
2023/03/05 04:37:40;;;;;;;7.07;6.63;;;4.30;99.90;;;;;;5031859;28;20175;-64
2023/03/05 04:40:07;;;;;;;7.27;6.90;;;4.20;99.90;;;;;;5031642;28;20233;-63
2023/03/05 04:42:32;;;;;;;6.63;6.13;;;4.20;99.90;;;;;;5031827;28;20539;-64
2023/03/05 04:44:58;;;;;;;6.40;6.10;;;4.20;99.90;;;;;;5032056;28;20203;-64
2023/03/05 04:47:23;;;;;;;6.23;5.93;;;4.20;99.90;;;;;;5030548;28;20180;-64
2023/03/05 04:49:49;;;;;;;6.43;6.13;;;4.20;99.90;;;;;;5031780;28;20180;-64
2023/03/05 04:52:15;;;;;;;7.70;6.93;;;4.20;99.90;;;;;;5031219;28;20551;-64
2023/03/05 04:54:40;;;;;;;8.23;7.43;;;4.20;99.90;;;;;;5031984;28;20249;-64
2023/03/05 04:57:06;;;;;;;7.47;6.77;;;4.10;99.90;;;;;;5031684;28;20222;-64
2023/03/05 04:59:32;;;;;;;6.60;6.30;;;4.10;99.90;;;;;;5031539;28;20179;-63
2023/03/05 05:01:57;;;;;;;7.70;7.13;;;4.10;99.90;;;;;;5031969;28;20260;-63
2023/03/05 05:04:23;;;;;;;6.67;6.17;;;4.10;99.90;;;;;;5031450;28;20187;-64
2023/03/05 05:06:48;;;;;;;6.80;6.40;;;4.10;99.90;;;;;;5031811;28;20160;-64
2023/03/05 05:09:14;;;;;;;7.17;6.67;;;4.10;99.90;;;;;;5031160;28;20199;-64
2023/03/05 05:11:40;;;;;;;6.87;6.37;;;4.20;99.90;;;;;;5031588;28;20546;-63
2023/03/05 05:14:06;;;;;;;7.03;6.73;;;4.10;99.90;;;;;;5030528;28;20214;-64
2023/03/05 05:16:31;;;;;;;6.60;6.20;;;4.10;99.90;;;;;;5031579;28;20691;-64
2023/03/05 05:18:57;;;;;;;6.73;6.33;;;4.10;99.90;;;;;;5031446;28;20183;-64
2023/03/05 05:21:22;;;;;;;6.17;5.77;;;4.10;99.90;;;;;;5030853;28;20226;-64
2023/03/05 05:23:48;;;;;;;5.90;5.70;;;4.10;99.90;;;;;;5031382;28;20585;-63
2023/03/05 05:26:14;;;;;;;6.40;6.07;;;4.10;99.90;;;;;;5030041;28;20238;-64
2023/03/05 05:28:42;;;;;;;6.53;6.20;;;4.10;99.90;;;;;;5031168;28;20190;-64
2023/03/05 05:31:13;;;;;;;6.80;6.40;;;4.10;99.90;;;;;;5031119;28;20176;-64
2023/03/05 05:33:39;;;;;;;11.10;7.10;;;4.10;99.90;;;;;;5031460;28;20175;-64
2023/03/05 05:36:07;;;;;;;7.70;7.13;;;4.00;99.90;;;;;;5031213;28;20203;-64
2023/03/05 05:38:33;;;;;;;8.10;7.53;;;4.00;99.90;;;;;;5030913;28;20183;-64
2023/03/05 05:41:13;;;;;;;10.07;7.00;;;4.00;99.90;;;;;;5031114;28;20555;-64
2023/03/05 05:43:39;;;;;;;7.80;7.27;;;4.00;99.90;;;;;;5030951;28;20214;-63
2023/03/05 05:46:07;;;;;;;8.63;7.80;;;4.00;99.90;;;;;;5031172;28;20187;-63
2023/03/05 05:48:34;;;;;;;7.33;7.03;;;4.00;99.90;;;;;;5031108;28;20508;-64
2023/03/05 05:51:09;;;;;;;7.53;7.20;;;4.00;99.90;;;;;;5031012;28;20171;-64
2023/03/05 05:53:34;;;;;;;8.43;7.83;;;4.00;99.90;;;;;;5031032;28;20225;-64
2023/03/05 05:56:02;;;;;;;18.07;8.47;;;4.00;99.90;;;;;;5031446;28;20195;-64
2023/03/05 05:58:28;;;;;;;9.37;8.47;;;4.00;99.90;;;;;;5029639;28;20266;-63
2023/03/05 06:00:53;;;;;;;8.70;8.17;;;4.00;99.90;;;;;;5031038;28;20246;-63
2023/03/05 06:03:19;;;;;;;8.77;8.37;;;4.00;99.90;;;;;;5030809;28;20199;-64
2023/03/05 06:05:46;;;;;;;8.13;7.73;;;4.00;99.90;;;;;;5034692;28;20257;-63
2023/03/05 06:08:12;;;;;;;8.87;7.97;;;4.00;99.90;;;;;;5034733;28;20179;-64
2023/03/05 06:10:38;;;;;;;8.67;8.00;;;4.00;99.90;;;;;;5034724;28;20504;-64
2023/03/05 06:13:03;;;;;;;7.93;7.53;;;4.00;99.90;;;;;;5034516;28;20213;-63
2023/03/05 06:15:30;;;;;;;7.97;7.37;;;4.10;99.90;;;;;;5033986;28;20237;-64
2023/03/05 06:17:57;;;;;;;7.70;7.30;;;4.10;99.90;;;;;;5034649;28;20604;-62
2023/03/05 06:20:22;;;;;;;7.90;7.40;;;4.10;99.90;;;;;;5034232;28;20171;-62
2023/03/05 06:22:48;;;;;;;7.40;6.90;;;4.10;99.90;;;;;;5034295;28;20286;-62
2023/03/05 06:25:13;;;;;;;9.30;7.50;;;4.10;99.90;;;;;;5034577;28;20667;-63
2023/03/05 06:27:39;;;;;;;7.27;6.97;;;4.10;99.90;;;;;;5034109;28;20178;-63
2023/03/05 06:30:06;;;;;;;7.43;7.13;;;4.10;99.90;;;;;;5034254;28;20495;-63
2023/03/05 06:32:31;;;;;;;7.57;7.17;;;4.10;99.90;;;;;;5033984;28;20337;-62
2023/03/05 06:34:57;;;;;;;9.87;7.80;;;4.10;99.90;;;;;;5034669;28;20866;-63
2023/03/05 06:37:23;;;;;;;7.27;6.87;;;4.10;99.90;;;;;;5034052;28;20189;-63
2023/03/05 06:39:48;;;;;;;7.33;6.67;;;4.10;99.90;;;;;;5034182;28;20167;-62
2023/03/05 06:42:16;;;;;;;7.30;6.77;;;4.10;99.90;;;;;;5034006;28;20707;-63
2023/03/05 06:44:42;;;;;;;6.83;6.53;;;4.20;99.90;;;;;;5033045;28;20688;-63
2023/03/05 06:47:12;;;;;;;6.60;6.20;;;4.20;99.90;;;;;;5033835;28;20175;-63
2023/03/05 06:49:37;;;;;;;6.90;6.53;;;4.20;99.90;;;;;;5033802;28;20187;-63
2023/03/05 06:52:04;;;;;;;7.20;6.80;;;4.20;99.90;;;;;;5033949;28;20690;-63
2023/03/05 06:54:30;;;;;;;7.37;6.73;;;4.20;99.90;;;;;;5033741;28;20195;-63
2023/03/05 06:56:56;;;;;;;7.50;6.90;;;4.20;99.90;;;;;;5034271;28;20181;-63
2023/03/05 06:59:22;;;;;;;7.10;6.40;;;4.30;99.90;;;;;;5033438;28;20594;-62
2023/03/05 07:01:48;;;;;;;6.93;6.47;;;4.30;99.90;;;;;;5033919;28;20195;-63
2023/03/05 07:04:14;;;;;;;7.53;7.03;;;4.40;99.90;;;;;;5033624;28;20171;-63
2023/03/05 07:06:43;;;;;;;5.90;5.60;;;4.40;99.90;;;;;;5032873;28;20558;-63
2023/03/05 07:09:14;;;;;;;6.40;5.90;;;4.50;99.90;;;;;;5033331;28;20246;-63
2023/03/05 07:11:39;;;;;;;6.83;6.33;;;4.50;99.90;;;;;;5033879;28;20186;-63
2023/03/05 07:14:05;;;;;;;7.80;5.83;;;4.50;99.90;;;;;;5032954;28;20646;-63
2023/03/05 07:16:33;;;;;;;7.50;6.90;;;4.50;99.90;;;;;;5033337;28;20211;-63
2023/03/05 07:19:01;;;;;;;12.83;8.07;;;4.50;99.90;;;;;;5033740;28;20250;-63
2023/03/05 07:21:30;;;;;;;6.53;6.23;;;4.50;99.90;;;;;;5031198;28;20275;-63
2023/03/05 07:23:58;;;;;;;6.67;6.37;;;4.50;99.90;;;;;;5033299;28;20515;-63
2023/03/05 07:26:24;;;;;;;7.53;6.83;;;4.50;99.90;;;;;;5032968;28;20255;-63
2023/03/05 07:28:50;;;;;;;6.50;6.10;;;4.50;99.90;;;;;;5033449;28;20167;-63
2023/03/05 07:31:18;;;;;;;7.23;6.73;;;4.50;99.90;;;;;;5032987;28;20175;-63
2023/03/05 07:33:48;;;;;;;8.57;7.20;;;4.50;99.90;;;;;;5033149;28;20201;-63
2023/03/05 07:36:14;;;;;;;7.80;7.20;;;4.50;99.90;;;;;;5032654;28;20275;-63
2023/03/05 07:38:40;;;;;;;6.50;6.20;;;4.50;99.90;;;;;;5033001;28;20709;-63
2023/03/05 07:41:08;;;;;;;7.90;7.07;;;4.50;99.90;;;;;;5032947;28;20175;-63
2023/03/05 07:43:34;;;;;;;6.47;6.17;;;4.50;99.90;;;;;;5032720;28;20211;-63
2023/03/05 07:46:03;;;;;;;6.37;5.97;;;4.50;99.90;;;;;;5032806;28;20199;-63
2023/03/05 07:48:29;;;;;;;7.93;5.63;;;4.50;99.90;;;;;;5032696;28;20203;-64
2023/03/05 07:51:14;;;;;;;5.63;5.33;;;4.50;99.90;;;;;;5032483;28;20230;-63
2023/03/05 07:53:41;;;;;;;6.13;5.73;;;4.60;99.90;;;;;;5033041;28;20533;-62
2023/03/05 07:56:07;;;;;;;6.93;6.17;;;4.60;99.90;;;;;;5032832;28;20183;-63
2023/03/05 07:58:33;;;;;;;6.67;6.13;;;4.70;99.90;;;;;;5031244;28;20529;-62
2023/03/05 08:00:58;;;;;;;6.30;6.00;;;4.70;99.90;;;;;;5032804;28;20179;-63
2023/03/05 08:03:24;;;;;;;6.93;6.53;;;4.70;99.90;;;;;;5033015;28;20204;-63
2023/03/05 08:05:49;;;;;;;6.43;6.13;;;4.80;99.90;;;;;;5033081;28;20266;-63
2023/03/05 08:08:15;;;;;;;6.53;6.03;;;4.80;99.90;;;;;;5032842;28;20179;-63
2023/03/05 08:10:41;;;;;;;5.70;5.40;;;4.80;99.90;;;;;;5032530;28;20175;-63
2023/03/05 08:13:07;;;;;;;7.27;6.67;;;4.90;99.90;;;;;;5030811;28;20179;-63
2023/03/05 08:15:32;;;;;;;7.60;6.50;;;4.80;99.90;;;;;;5031817;28;20238;-63
2023/03/05 08:17:58;;;;;;;6.87;6.47;;;4.90;99.90;;;;;;5032146;28;20190;-64
2023/03/05 08:20:24;;;;;;;7.53;6.93;;;5.00;99.90;;;;;;5032209;28;20188;-64
2023/03/05 08:22:50;;;;;;;14.00;10.00;;;5.00;99.90;;;;;;5032868;28;20279;-63
2023/03/05 08:25:15;;;;;;;7.90;7.13;;;5.10;99.90;;;;;;5032859;28;20233;-64
2023/03/05 08:27:43;;;;;;;10.07;7.70;;;5.20;99.90;;;;;;5031120;28;20504;-64
2023/03/05 08:30:12;;;;;;;9.77;7.43;;;5.30;99.90;;;;;;5032010;28;20179;-63
2023/03/05 08:32:38;;;;;;;7.50;6.60;;;5.30;99.90;;;;;;5031926;28;20649;-63
2023/03/05 08:35:05;;;;;;;6.87;6.50;;;5.30;99.90;;;;;;5032174;28;20194;-64
2023/03/05 08:37:31;;;;;;;7.50;6.90;;;5.30;99.90;;;;;;5031782;28;20175;-63
2023/03/05 08:39:57;;;;;;;6.67;6.13;;;5.30;99.90;;;;;;5031731;28;20210;-64
2023/03/05 08:42:23;;;;;;;7.93;7.20;;;5.30;99.90;;;;;;5031777;28;20195;-64
2023/03/05 08:44:49;;;;;;;6.50;6.10;;;5.40;99.90;;;;;;5031714;28;20584;-63
2023/03/05 08:47:15;;;;;;;6.10;5.60;;;5.50;99.90;;;;;;5031554;28;20266;-63
2023/03/05 08:49:40;;;;;;;6.53;6.13;;;5.50;99.90;;;;;;5031416;28;20592;-64
2023/03/05 08:52:06;;;;;;;9.03;8.23;;;5.50;99.90;;;;;;5030797;28;20271;-64
2023/03/05 08:54:33;;;;;;;10.33;7.77;;;5.60;99.90;;;;;;5030289;28;20194;-63
2023/03/05 08:56:59;;;;;;;7.87;7.27;;;5.80;99.90;;;;;;5031651;28;20195;-64
2023/03/05 08:59:24;;;;;;;6.23;5.83;;;5.80;99.90;;;;;;5031231;28;20234;-64
2023/03/05 09:01:50;;;;;;;6.30;5.90;;;6.00;99.90;;;;;;5031288;28;20611;-64
2023/03/05 09:04:16;;;;;;;6.60;6.20;;;6.10;99.90;;;;;;5031373;28;20176;-64
2023/03/05 09:06:41;;;;;;;6.70;6.00;;;6.30;99.90;;;;;;5031066;28;20744;-64
2023/03/05 09:09:08;;;;;;;6.80;6.17;;;6.40;99.90;;;;;;5031457;28;20176;-63
2023/03/05 09:11:35;;;;;;;7.00;6.50;;;6.50;99.90;;;;;;5030721;28;20597;-64
2023/03/05 09:14:03;;;;;;;8.03;7.33;;;6.90;99.90;;;;;;5030877;28;20167;-64
2023/03/05 09:16:29;;;;;;;7.83;5.73;;;7.30;99.90;;;;;;5031027;28;20196;-64
2023/03/05 09:18:55;;;;;;;7.80;5.70;;;7.70;99.90;;;;;;5031595;28;20304;-64
2023/03/05 09:21:20;;;;;;;6.77;6.27;;;7.80;99.90;;;;;;5030528;28;20187;-65
2023/03/05 09:23:46;;;;;;;7.00;6.37;;;7.80;99.90;;;;;;5031485;28;20168;-64
2023/03/05 09:26:14;;;;;;;6.40;5.97;;;7.90;99.90;;;;;;5031007;28;20207;-65
2023/03/05 09:28:40;;;;;;;11.07;6.03;;;8.10;99.90;;;;;;5030246;28;20175;-64
2023/03/05 09:31:08;;;;;;;6.77;6.37;;;8.20;99.90;;;;;;5030441;28;20183;-64
2023/03/05 09:33:34;;;;;;;7.00;6.27;;;8.00;99.90;;;;;;5031405;28;20179;-64
2023/03/05 09:36:01;;;;;;;11.43;6.63;;;7.80;99.90;;;;;;5031546;28;20184;-64
2023/03/05 09:38:27;;;;;;;7.17;6.57;;;7.50;99.90;;;;;;5032728;28;20190;-65
2023/03/05 09:41:20;;;;;;;7.50;6.67;;;7.30;99.90;;;;;;5035037;28;20275;-63
2023/03/05 09:44:12;;;;;;;6.70;6.20;;;7.00;99.90;;;;;;5035197;28;20175;-63
2023/03/05 09:46:55;;;;;;;6.87;6.47;;;6.70;99.90;;;;;;5035191;28;20206;-64
2023/03/05 09:49:50;;;;;;;8.53;6.70;;;6.60;99.90;;;;;;5035030;28;20171;-65
2023/03/05 09:52:31;;;;;;;6.17;5.77;;;6.50;99.90;;;;;;5013727;28;20254;-66
2023/03/05 09:54:58;;;;;;;11.60;10.77;;;6.30;99.90;;;;;;5030604;28;20648;-63
2023/03/05 09:57:35;;;;;;;9.40;8.83;;;6.20;99.90;;;;;;5028595;28;20203;-64
2023/03/05 10:00:08;;;;;;;12.30;11.40;;;6.00;99.90;;;;;;5030154;28;20183;-64
2023/03/05 10:02:36;;;;;;;7.73;7.23;;;5.80;99.90;;;;;;5031206;28;20206;-64
2023/03/05 10:05:08;;;;;;;8.57;7.73;;;5.50;99.90;;;;;;5031378;28;20235;-63
2023/03/05 10:07:37;;;;;;;7.80;7.30;;;5.40;99.90;;;;;;5027718;28;20219;-64
2023/03/05 10:10:10;;;;;;;7.90;7.27;;;5.20;99.90;;;;;;5029964;28;20180;-64
2023/03/05 10:12:49;;;;;;;8.20;7.43;;;5.20;99.90;;;;;;5034100;28;20267;-65
2023/03/05 10:15:25;;;;;;;7.97;7.27;;;5.30;99.90;;;;;;5033837;28;20203;-63
2023/03/05 10:18:29;;;;;;;8.50;7.73;;;5.30;99.90;;;;;;5034653;28;20633;-65
2023/03/05 10:21:00;;;;;;;9.60;8.60;;;5.30;99.90;;;;;;5014447;28;20211;-66
2023/03/05 10:23:56;;;;;;;9.27;6.83;;;5.20;99.90;;;;;;5015012;28;20447;-65
2023/03/05 10:26:58;;;;;;;10.03;6.83;;;5.20;99.90;;;;;;5014678;28;20200;-65
2023/03/05 10:30:02;;;;;;;8.17;7.47;;;5.30;99.90;;;;;;5020441;28;20205;-65
2023/03/05 10:32:54;;;;;;;10.87;8.00;;;5.50;99.90;;;;;;5033098;28;20262;-66
2023/03/05 10:35:38;;;;;;;7.97;7.30;;;5.70;99.90;;;;;;5034044;28;20207;-64
2023/03/05 10:38:27;;;;;;;7.33;6.83;;;5.80;99.90;;;;;;5034578;28;20179;-64
2023/03/05 10:40:54;;;;;;;8.83;8.10;;;5.90;99.90;;;;;;5033900;28;20532;-65
2023/03/05 10:43:41;;;;;;;7.50;7.00;;;6.00;99.90;;;;;;5033871;28;20211;-65
2023/03/05 10:46:14;;;;;;;9.00;8.27;;;6.00;99.90;;;;;;5034157;28;20187;-63
2023/03/05 10:49:10;;;;;;;7.90;7.40;;;6.00;99.90;;;;;;5034117;28;20520;-64
2023/03/05 10:51:49;;;;;;;9.30;8.70;;;6.00;99.90;;;;;;5030257;28;20669;-65
2023/03/05 10:54:34;;;;;;;9.63;8.83;;;6.10;99.90;;;;;;5032926;28;20181;-64
2023/03/05 10:57:12;;;;;;;8.07;7.57;;;6.20;99.90;;;;;;5031858;28;20601;-65
2023/03/05 10:59:53;;;;;;;7.80;7.30;;;6.30;99.90;;;;;;5033403;28;20179;-65
2023/03/05 11:02:21;;;;;;;6.63;6.23;;;6.40;99.90;;;;;;5032592;28;20215;-65
2023/03/05 11:04:47;;;;;;;7.40;6.90;;;6.60;99.90;;;;;;5033939;28;20223;-65
2023/03/05 11:07:15;;;;;;;6.40;6.10;;;6.80;99.90;;;;;;5033466;28;20645;-63
2023/03/05 11:09:42;;;;;;;7.70;7.10;;;6.70;99.90;;;;;;5033391;28;20180;-63
2023/03/05 11:12:15;;;;;;;7.80;7.10;;;6.50;99.90;;;;;;5033362;28;20183;-63
2023/03/05 11:14:44;;;;;;;7.27;6.77;;;6.40;99.90;;;;;;5032380;28;20242;-64
2023/03/05 11:17:26;;;;;;;7.30;6.80;;;6.30;99.90;;;;;;5032687;28;20179;-62
2023/03/05 11:19:51;;;;;;;7.93;7.40;;;6.10;99.90;;;;;;5030590;28;20183;-63
2023/03/05 11:22:23;;;;;;;7.27;6.70;;;5.90;99.90;;;;;;5033432;28;20210;-64
2023/03/05 11:25:20;;;;;;;7.17;6.77;;;5.80;99.90;;;;;;5031888;28;20199;-62
2023/03/05 11:28:04;;;;;;;9.80;8.83;;;5.90;99.90;;;;;;5033529;28;20183;-63
2023/03/05 11:30:33;;;;;;;13.83;10.50;;;5.90;99.90;;;;;;5032862;28;20188;-63
2023/03/05 11:33:21;;;;;;;9.47;8.70;;;5.80;99.90;;;;;;5033416;28;20582;-63
2023/03/05 11:35:50;;;;;;;8.30;7.73;;;5.80;99.90;;;;;;5032618;28;20600;-65
2023/03/05 11:38:26;;;;;;;8.17;7.47;;;5.80;99.90;;;;;;5032156;28;20187;-63
2023/03/05 11:40:54;;;;;;;8.67;8.03;;;5.70;99.90;;;;;;5032705;28;20661;-64
2023/03/05 11:43:23;;;;;;;8.17;7.57;;;5.90;99.90;;;;;;5032951;28;20199;-64
2023/03/05 11:45:53;;;;;;;7.80;7.30;;;6.10;99.90;;;;;;5031670;28;20270;-64
2023/03/05 11:48:40;;;;;;;9.37;8.47;;;6.30;99.90;;;;;;5032712;28;20242;-63
2023/03/05 11:51:13;;;;;;;8.37;7.67;;;6.50;99.90;;;;;;5019202;28;20186;-63
2023/03/05 11:53:41;;;;;;;6.73;6.33;;;6.50;99.90;;;;;;5032623;28;20183;-65
2023/03/05 11:56:48;;;;;;;7.23;6.77;;;6.70;99.90;;;;;;5028589;28;20203;-64
2023/03/05 11:59:28;;;;;;;9.87;7.27;;;6.80;99.90;;;;;;5031103;28;20642;-63
2023/03/05 12:01:56;;;;;;;7.63;7.13;;;6.70;99.90;;;;;;5031476;28;20206;-63
2023/03/05 12:04:22;;;;;;;6.30;5.90;;;6.60;99.90;;;;;;5031032;28;20184;-65
2023/03/05 12:06:54;;;;;;;7.70;7.00;;;6.50;99.90;;;;;;5032700;28;20164;-63
2023/03/05 12:09:40;;;;;;;7.23;6.73;;;6.50;99.90;;;;;;5031924;28;20179;-62
2023/03/05 12:12:11;;;;;;;8.07;7.57;;;6.50;99.90;;;;;;5032422;28;20178;-63
2023/03/05 12:14:54;;;;;;;6.90;6.40;;;6.50;99.90;;;;;;5032422;28;20179;-63
2023/03/05 12:17:27;;;;;;;8.27;7.00;;;6.50;99.90;;;;;;5032508;28;20629;-64
2023/03/05 12:20:05;;;;;;;6.43;6.13;;;6.50;99.90;;;;;;5031828;28;20649;-64
2023/03/05 12:22:37;;;;;;;7.60;7.00;;;6.60;99.90;;;;;;5030403;28;20698;-65
2023/03/05 12:25:23;;;;;;;6.73;6.27;;;6.80;99.90;;;;;;5031341;28;20192;-62
2023/03/05 12:27:49;;;;;;;8.13;7.03;;;7.00;99.90;;;;;;5032189;28;20268;-63
2023/03/05 12:30:33;;;;;;;7.80;7.10;;;7.10;99.90;;;;;;5031853;28;20263;-62
2023/03/05 12:33:03;;;;;;;6.93;6.53;;;7.20;99.90;;;;;;5032166;28;20202;-64
2023/03/05 12:35:30;;;;;;;7.20;6.63;;;7.40;99.90;;;;;;5031781;28;20195;-66
2023/03/05 12:37:58;;;;;;;7.33;6.87;;;7.40;99.90;;;;;;5032086;28;20183;-64
2023/03/05 12:40:31;;;;;;;6.37;5.97;;;7.40;99.90;;;;;;5031345;28;20176;-64
2023/03/05 12:43:05;;;;;;;6.47;6.07;;;7.50;99.90;;;;;;5031902;28;20613;-63
2023/03/05 12:45:33;;;;;;;7.03;6.53;;;7.50;99.90;;;;;;5031732;28;20278;-64
2023/03/05 12:47:59;;;;;;;6.40;5.90;;;7.40;99.90;;;;;;5031982;28;20245;-64
2023/03/05 12:50:28;;;;;;;6.43;5.80;;;7.40;99.90;;;;;;5031521;28;20168;-64
2023/03/05 12:52:57;;;;;;;6.80;6.37;;;7.40;99.90;;;;;;5031911;28;20171;-64
2023/03/05 12:55:46;;;;;;;6.67;6.17;;;7.40;99.90;;;;;;5032053;28;20207;-64
2023/03/05 12:58:23;;;;;;;6.40;5.97;;;7.30;99.90;;;;;;5029050;28;20217;-63
2023/03/05 13:00:55;;;;;;;7.13;6.70;;;7.40;99.90;;;;;;5031820;28;20541;-64
2023/03/05 13:03:42;;;;;;;7.50;7.00;;;7.40;99.90;;;;;;5031299;28;20204;-64
2023/03/05 13:06:23;;;;;;;7.80;7.13;;;7.40;99.90;;;;;;5030126;28;20585;-64